Time,TemperatureF,DewpointF,PressureIn,WindDirection,WindDirectionDegrees,WindSpeedMPH,WindSpeedGustMPH,Humidity,HourlyPrecipIn,Conditions,Clouds,dailyrainin,SoftwareType,DateUTC
2013-01-12 00:02:00,54.0,47.0,-100.00,North,-999,-999.0,-999.0,76,0.00,,,-99.99,,2013-01-12 06:02:00,
2013-01-12 00:12:00,53.0,46.0,-100.00,North,-999,-999.0,-999.0,75,0.00,,,-99.99,,2013-01-12 06:12:00,
2013-01-12 00:22:00,53.0,45.0,-100.00,North,-999,-999.0,-999.0,74,0.00,,,-99.99,,2013-01-12 06:22:00,
2013-01-12 00:32:00,53.0,42.0,-100.00,North,-999,-999.0,-999.0,66,0.00,,,-99.99,,2013-01-12 06:32:00,
2013-01-12 00:42:00,53.0,42.0,-100.00,North,-999,-999.0,-999.0,66,0.00,,,-99.99,,2013-01-12 06:42:00,
2013-01-12 00:53:00,40.0,-99.9,-100.00,North,-999,-999.0,-999.0,-999,0.00,,,-99.99,,2013-01-12 06:53:00,
2013-01-12 01:02:00,40.0,-99.9,-100.00,North,-999,-999.0,-999.0,-999,0.00,,,-99.99,,2013-01-12 07:02:00,
2013-01-12 01:12:00,39.0,-99.9,-100.00,North,-999,-999.0,-999.0,-999,0.00,,,-99.99,,2013-01-12 07:12:00,
2013-01-12 01:22:00,38.0,-99.9,-100.00,North,-999,-999.0,-999.0,-999,0.00,,,-99.99,,2013-01-12 07:22:00,
2013-01-12 01:32:00,37.0,-99.9,-100.00,North,-999,-999.0,-999.0,-999,0.00,,,-99.99,,2013-01-12 07:32:00,
2013-01-12 01:43:00,37.0,-99.9,-100.00,North,-999,-999.0,-999.0,-999,0.00,,,-99.99,,2013-01-12 07:43:00,
2013-01-12 01:53:00,36.0,-99.9,-100.00,North,-999,-999.0,-999.0,-999,0.00,,,-99.99,,2013-01-12 07:53:00,
2013-01-12 02:02:00,36.0,-99.9,-100.00,North,-999,-999.0,-999.0,-999,0.00,,,-99.99,,2013-01-12 08:02:00,
2013-01-12 02:12:00,35.0,-99.9,-100.00,North,-999,-999.0,-999.0,-999,0.00,,,-99.99,,2013-01-12 08:12:00,
2013-01-12 02:22:00,35.0,-99.9,-100.00,North,-999,-999.0,-999.0,-999,0.00,,,-99.99,,2013-01-12 08:22:00,
2013-01-12 02:32:00,35.0,-99.9,-100.00,North,-999,-999.0,-999.0,-999,0.00,,,-99.99,,2013-01-12 08:32:00,
2013-01-12 02:42:00,35.0,-99.9,-100.00,North,-999,-999.0,-999.0,-999,0.00,,,-99.99,,2013-01-12 08:42:00,
2013-01-12 02:53:00,34.0,-99.9,-100.00,North,-999,-999.0,-999.0,-999,0.00,,,-99.99,,2013-01-12 08:53:00,
2013-01-12 03:02:00,34.0,-99.9,-100.00,North,-999,-999.0,-999.0,-999,0.00,,,-99.99,,2013-01-12 09:02:00,
2013-01-12 03:12:00,33.0,-99.9,-100.00,North,-999,-999.0,-999.0,-999,0.00,,,-99.99,,2013-01-12 09:12:00,
2013-01-12 03:22:00,33.0,31.0,-100.00,North,-999,-999.0,-999.0,94,0.00,,,-99.99,,2013-01-12 09:22:00,
2013-01-12 03:32:00,31.0,29.0,-100.00,North,-999,-999.0,-999.0,90,0.00,,,-99.99,,2013-01-12 09:32:00,
2013-01-12 03:42:00,31.0,29.0,-100.00,North,-999,-999.0,-999.0,90,0.00,,,-99.99,,2013-01-12 09:42:00,
2013-01-12 03:52:00,31.0,28.0,-100.00,North,-999,-999.0,-999.0,88,0.00,,,-99.99,,2013-01-12 09:52:00,
2013-01-12 04:02:00,31.0,28.0,-100.00,North,-999,-999.0,-999.0,88,0.00,,,-99.99,,2013-01-12 10:02:00,
2013-01-12 04:12:00,31.0,28.0,-100.00,North,-999,-999.0,-999.0,88,0.00,,,-99.99,,2013-01-12 10:12:00,
2013-01-12 04:22:00,30.0,26.0,-100.00,North,-999,-999.0,-999.0,84,0.00,,,-99.99,,2013-01-12 10:22:00,
2013-01-12 04:32:00,29.0,24.0,-100.00,North,-999,-999.0,-999.0,80,0.00,,,-99.99,,2013-01-12 10:32:00,
2013-01-12 04:42:00,29.0,24.0,-100.00,North,-999,-999.0,-999.0,80,0.00,,,-99.99,,2013-01-12 10:42:00,
2013-01-12 04:52:00,29.0,22.0,-100.00,North,-999,-999.0,-999.0,75,0.00,,,-99.99,,2013-01-12 10:52:00,
2013-01-12 05:02:00,29.0,22.0,-100.00,North,-999,-999.0,-999.0,75,0.00,,,-99.99,,2013-01-12 11:02:00,
2013-01-12 05:12:00,28.0,21.0,-100.00,North,-999,-999.0,-999.0,75,0.00,,,-99.99,,2013-01-12 11:12:00,
2013-01-12 05:22:00,27.0,20.0,-100.00,North,-999,-999.0,-999.0,73,0.00,,,-99.99,,2013-01-12 11:22:00,
2013-01-12 05:32:00,26.0,17.0,-100.00,North,-999,-999.0,-999.0,68,0.00,,,-99.99,,2013-01-12 11:32:00,
2013-01-12 05:42:00,26.0,17.0,-100.00,North,-999,-999.0,-999.0,68,0.00,,,-99.99,,2013-01-12 11:42:00,
2013-01-12 05:52:00,25.0,16.0,-100.00,North,-999,-999.0,-999.0,69,0.00,,,-99.99,,2013-01-12 11:52:00,
2013-01-12 06:02:00,25.0,16.0,-100.00,North,-999,-999.0,-999.0,69,0.00,,,-99.99,,2013-01-12 12:02:00,
2013-01-12 06:12:00,25.0,16.0,-100.00,North,-999,-999.0,-999.0,69,0.00,,,-99.99,,2013-01-12 12:12:00,
2013-01-12 06:22:00,25.0,16.0,-100.00,North,-999,-999.0,-999.0,69,0.00,,,-99.99,,2013-01-12 12:22:00,
2013-01-12 06:32:00,24.0,15.0,-100.00,North,-999,-999.0,-999.0,69,0.00,,,-99.99,,2013-01-12 12:32:00,
2013-01-12 06:42:00,24.0,15.0,-100.00,North,-999,-999.0,-999.0,69,0.00,,,-99.99,,2013-01-12 12:42:00,
2013-01-12 06:52:00,23.0,14.0,-100.00,North,-999,-999.0,-999.0,66,0.00,,,-99.99,,2013-01-12 12:52:00,
2013-01-12 07:02:00,23.0,14.0,-100.00,North,-999,-999.0,-999.0,66,0.00,,,-99.99,,2013-01-12 13:02:00,
2013-01-12 07:12:00,23.0,13.0,-100.00,North,-999,-999.0,-999.0,65,0.00,,,-99.99,,2013-01-12 13:12:00,
2013-01-12 07:22:00,23.0,13.0,-100.00,North,-999,-999.0,-999.0,66,0.00,,,-99.99,,2013-01-12 13:22:00,
2013-01-12 07:33:00,22.0,12.0,-100.00,North,-999,-999.0,-999.0,63,0.00,,,-99.99,,2013-01-12 13:33:00,
2013-01-12 07:42:00,22.0,12.0,-100.00,North,-999,-999.0,-999.0,63,0.00,,,-99.99,,2013-01-12 13:42:00,
2013-01-12 07:53:00,22.0,12.0,-100.00,North,-999,-999.0,-999.0,64,0.00,,,-99.99,,2013-01-12 13:53:00,
2013-01-12 08:02:00,22.0,12.0,-100.00,North,-999,-999.0,-999.0,64,0.00,,,-99.99,,2013-01-12 14:02:00,
2013-01-12 08:12:00,22.0,12.0,-100.00,North,-999,-999.0,-999.0,66,0.00,,,-99.99,,2013-01-12 14:12:00,
2013-01-12 08:22:00,22.0,12.0,-100.00,North,-999,-999.0,-999.0,66,0.00,,,-99.99,,2013-01-12 14:22:00,
2013-01-12 08:33:00,22.0,13.0,-100.00,North,-999,-999.0,-999.0,66,0.00,,,-99.99,,2013-01-12 14:33:00,
2013-01-12 08:43:00,22.0,13.0,-100.00,North,-999,-999.0,-999.0,66,0.00,,,-99.99,,2013-01-12 14:43:00,
2013-01-12 08:53:00,22.0,12.0,-100.00,North,-999,-999.0,-999.0,65,0.00,,,-99.99,,2013-01-12 14:53:00,
2013-01-12 09:03:00,22.0,12.0,-100.00,North,-999,-999.0,-999.0,65,0.00,,,-99.99,,2013-01-12 15:03:00,
2013-01-12 09:12:00,22.0,12.0,-100.00,North,-999,-999.0,-999.0,64,0.00,,,-99.99,,2013-01-12 15:12:00,
2013-01-12 09:22:00,23.0,12.0,-100.00,North,-999,-999.0,-999.0,62,0.00,,,-99.99,,2013-01-12 15:22:00,
2013-01-12 09:33:00,23.0,13.0,-100.00,North,-999,-999.0,-999.0,63,0.00,,,-99.99,,2013-01-12 15:33:00,
2013-01-12 09:42:00,23.0,13.0,-100.00,North,-999,-999.0,-999.0,63,0.00,,,-99.99,,2013-01-12 15:42:00,
2013-01-12 09:52:00,24.0,13.0,-100.00,North,-999,-999.0,-999.0,64,0.00,,,-99.99,,2013-01-12 15:52:00,
2013-01-12 10:03:00,24.0,13.0,-100.00,North,-999,-999.0,-999.0,64,0.00,,,-99.99,,2013-01-12 16:03:00,
2013-01-12 10:12:00,24.0,14.0,-100.00,North,-999,-999.0,-999.0,64,0.00,,,-99.99,,2013-01-12 16:12:00,
2013-01-12 10:23:00,24.0,14.0,-100.00,North,-999,-999.0,-999.0,65,0.00,,,-99.99,,2013-01-12 16:23:00,
2013-01-12 10:33:00,24.0,15.0,-100.00,North,-999,-999.0,-999.0,66,0.00,,,-99.99,,2013-01-12 16:33:00,
2013-01-12 10:42:00,24.0,15.0,-100.00,North,-999,-999.0,-999.0,66,0.00,,,-99.99,,2013-01-12 16:42:00,
2013-01-12 10:52:00,25.0,15.0,-100.00,North,-999,-999.0,-999.0,66,0.00,,,-99.99,,2013-01-12 16:52:00,
2013-01-12 11:02:00,25.0,15.0,-100.00,North,-999,-999.0,-999.0,66,0.00,,,-99.99,,2013-01-12 17:02:00,
2013-01-12 11:12:00,24.0,14.0,-100.00,North,-999,-999.0,-999.0,65,0.00,,,-99.99,,2013-01-12 17:12:00,
2013-01-12 11:22:00,24.0,15.0,-100.00,North,-999,-999.0,-999.0,66,0.00,,,-99.99,,2013-01-12 17:22:00,
2013-01-12 11:33:00,24.0,14.0,-100.00,North,-999,-999.0,-999.0,63,0.00,,,-99.99,,2013-01-12 17:33:00,
2013-01-12 11:42:00,24.0,14.0,-100.00,North,-999,-999.0,-999.0,63,0.00,,,-99.99,,2013-01-12 17:42:00,
2013-01-12 11:53:00,25.0,13.0,-100.00,North,-999,-999.0,-999.0,60,0.00,,,-99.99,,2013-01-12 17:53:00,
2013-01-12 12:03:00,25.0,13.0,-100.00,North,-999,-999.0,-999.0,60,0.00,,,-99.99,,2013-01-12 18:03:00,
2013-01-12 12:12:00,25.0,13.0,-100.00,North,-999,-999.0,-999.0,60,0.00,,,-99.99,,2013-01-12 18:12:00,
2013-01-12 12:22:00,25.0,13.0,-100.00,North,-999,-999.0,-999.0,59,0.00,,,-99.99,,2013-01-12 18:22:00,
2013-01-12 12:33:00,24.0,13.0,-100.00,North,-999,-999.0,-999.0,60,0.00,,,-99.99,,2013-01-12 18:33:00,
2013-01-12 12:42:00,24.0,13.0,-100.00,North,-999,-999.0,-999.0,60,0.00,,,-99.99,,2013-01-12 18:42:00,
2013-01-12 12:52:00,23.0,12.0,-100.00,North,-999,-999.0,-999.0,60,0.00,,,-99.99,,2013-01-12 18:52:00,
2013-01-12 13:03:00,23.0,12.0,-100.00,North,-999,-999.0,-999.0,60,0.00,,,-99.99,,2013-01-12 19:03:00,
2013-01-12 13:12:00,23.0,13.0,-100.00,North,-999,-999.0,-999.0,62,0.00,,,-99.99,,2013-01-12 19:12:00,
2013-01-12 13:22:00,23.0,12.0,-100.00,North,-999,-999.0,-999.0,62,0.00,,,-99.99,,2013-01-12 19:22:00,
2013-01-12 13:33:00,23.0,12.0,-100.00,North,-999,-999.0,-999.0,62,0.00,,,-99.99,,2013-01-12 19:33:00,
2013-01-12 13:42:00,23.0,12.0,-100.00,North,-999,-999.0,-999.0,62,0.00,,,-99.99,,2013-01-12 19:42:00,
2013-01-12 13:52:00,22.0,11.0,-100.00,North,-999,-999.0,-999.0,61,0.00,,,-99.99,,2013-01-12 19:52:00,
2013-01-12 14:02:00,22.0,11.0,-100.00,North,-999,-999.0,-999.0,61,0.00,,,-99.99,,2013-01-12 20:02:00,
2013-01-12 14:12:00,22.0,11.0,-100.00,North,-999,-999.0,-999.0,61,0.00,,,-99.99,,2013-01-12 20:12:00,
2013-01-12 14:22:00,22.0,11.0,-100.00,North,-999,-999.0,-999.0,62,0.00,,,-99.99,,2013-01-12 20:22:00,
2013-01-12 14:32:00,23.0,12.0,-100.00,North,-999,-999.0,-999.0,62,0.00,,,-99.99,,2013-01-12 20:32:00,
2013-01-12 14:42:00,23.0,12.0,-100.00,North,-999,-999.0,-999.0,62,0.00,,,-99.99,,2013-01-12 20:42:00,
2013-01-12 14:53:00,23.0,13.0,-100.00,North,-999,-999.0,-999.0,64,0.00,,,-99.99,,2013-01-12 20:53:00,
2013-01-12 15:03:00,23.0,13.0,-100.00,North,-999,-999.0,-999.0,64,0.00,,,-99.99,,2013-01-12 21:03:00,
2013-01-12 15:12:00,22.0,12.0,-100.00,North,-999,-999.0,-999.0,63,0.00,,,-99.99,,2013-01-12 21:12:00,
2013-01-12 15:22:00,22.0,11.0,-100.00,North,-999,-999.0,-999.0,62,0.00,,,-99.99,,2013-01-12 21:22:00,
2013-01-12 15:33:00,22.0,12.0,-100.00,North,-999,-999.0,-999.0,64,0.00,,,-99.99,,2013-01-12 21:33:00,
2013-01-12 15:42:00,22.0,12.0,-100.00,North,-999,-999.0,-999.0,64,0.00,,,-99.99,,2013-01-12 21:42:00,
2013-01-12 15:52:00,22.0,11.0,-100.00,North,-999,-999.0,-999.0,63,0.00,,,-99.99,,2013-01-12 21:52:00,
2013-01-12 16:02:00,22.0,11.0,-100.00,North,-999,-999.0,-999.0,63,0.00,,,-99.99,,2013-01-12 22:02:00,
2013-01-12 16:12:00,22.0,11.0,-100.00,North,-999,-999.0,-999.0,63,0.00,,,-99.99,,2013-01-12 22:12:00,
2013-01-12 16:22:00,22.0,11.0,-100.00,North,-999,-999.0,-999.0,64,0.00,,,-99.99,,2013-01-12 22:22:00,
2013-01-12 16:33:00,22.0,11.0,-100.00,North,-999,-999.0,-999.0,64,0.00,,,-99.99,,2013-01-12 22:33:00,
2013-01-12 16:43:00,22.0,11.0,-100.00,North,-999,-999.0,-999.0,64,0.00,,,-99.99,,2013-01-12 22:43:00,
2013-01-12 16:52:00,22.0,12.0,-100.00,North,-999,-999.0,-999.0,64,0.00,,,-99.99,,2013-01-12 22:52:00,
2013-01-12 17:02:00,22.0,12.0,-100.00,North,-999,-999.0,-999.0,64,0.00,,,-99.99,,2013-01-12 23:02:00,
2013-01-12 17:12:00,22.0,12.0,-100.00,North,-999,-999.0,-999.0,65,0.00,,,-99.99,,2013-01-12 23:12:00,
2013-01-12 17:22:00,22.0,12.0,-100.00,North,-999,-999.0,-999.0,64,0.00,,,-99.99,,2013-01-12 23:22:00,
2013-01-12 17:33:00,22.0,11.0,-100.00,North,-999,-999.0,-999.0,64,0.00,,,-99.99,,2013-01-12 23:33:00,
2013-01-12 17:42:00,22.0,11.0,-100.00,North,-999,-999.0,-999.0,64,0.00,,,-99.99,,2013-01-12 23:42:00,
2013-01-12 17:52:00,21.0,11.0,-100.00,North,-999,-999.0,-999.0,64,0.00,,,-99.99,,2013-01-12 23:52:00,
2013-01-12 18:03:00,21.0,11.0,-100.00,North,-999,-999.0,-999.0,64,0.00,,,-99.99,,2013-01-13 00:03:00,
2013-01-12 18:12:00,21.0,11.0,-100.00,North,-999,-999.0,-999.0,64,0.00,,,-99.99,,2013-01-13 00:12:00,
2013-01-12 18:22:00,21.0,12.0,-100.00,North,-999,-999.0,-999.0,66,0.00,,,-99.99,,2013-01-13 00:22:00,
2013-01-12 18:33:00,21.0,11.0,-100.00,North,-999,-999.0,-999.0,66,0.00,,,-99.99,,2013-01-13 00:33:00,
2013-01-12 18:42:00,21.0,11.0,-100.00,North,-999,-999.0,-999.0,66,0.00,,,-99.99,,2013-01-13 00:42:00,
2013-01-12 18:52:00,21.0,12.0,-100.00,North,-999,-999.0,-999.0,66,0.00,,,-99.99,,2013-01-13 00:52:00,
2013-01-12 19:02:00,21.0,12.0,-100.00,North,-999,-999.0,-999.0,66,0.00,,,-99.99,,2013-01-13 01:02:00,
2013-01-12 19:12:00,21.0,11.0,-100.00,North,-999,-999.0,-999.0,67,0.00,,,-99.99,,2013-01-13 01:12:00,
2013-01-12 19:22:00,21.0,12.0,-100.00,North,-999,-999.0,-999.0,68,0.00,,,-99.99,,2013-01-13 01:22:00,
2013-01-12 19:33:00,20.0,11.0,-100.00,North,-999,-999.0,-999.0,68,0.00,,,-99.99,,2013-01-13 01:33:00,
2013-01-12 19:42:00,20.0,11.0,-100.00,North,-999,-999.0,-999.0,68,0.00,,,-99.99,,2013-01-13 01:42:00,
2013-01-12 19:52:00,20.0,10.0,-100.00,North,-999,-999.0,-999.0,65,0.00,,,-99.99,,2013-01-13 01:52:00,
2013-01-12 20:02:00,20.0,10.0,-100.00,North,-999,-999.0,-999.0,65,0.00,,,-99.99,,2013-01-13 02:02:00,
2013-01-12 20:12:00,20.0,10.0,-100.00,North,-999,-999.0,-999.0,66,0.00,,,-99.99,,2013-01-13 02:12:00,
2013-01-12 20:22:00,20.0,10.0,-100.00,North,-999,-999.0,-999.0,66,0.00,,,-99.99,,2013-01-13 02:22:00,
2013-01-12 20:32:00,20.0,11.0,-100.00,North,-999,-999.0,-999.0,67,0.00,,,-99.99,,2013-01-13 02:32:00,
2013-01-12 20:42:00,20.0,11.0,-100.00,North,-999,-999.0,-999.0,67,0.00,,,-99.99,,2013-01-13 02:42:00,
2013-01-12 20:52:00,19.0,9.0,-100.00,North,-999,-999.0,-999.0,64,0.00,,,-99.99,,2013-01-13 02:52:00,
2013-01-12 21:02:00,19.0,9.0,-100.00,North,-999,-999.0,-999.0,64,0.00,,,-99.99,,2013-01-13 03:02:00,
2013-01-12 21:12:00,19.0,9.0,-100.00,North,-999,-999.0,-999.0,63,0.00,,,-99.99,,2013-01-13 03:12:00,
2013-01-12 21:22:00,19.0,9.0,-100.00,North,-999,-999.0,-999.0,63,0.00,,,-99.99,,2013-01-13 03:22:00,
2013-01-12 21:33:00,19.0,9.0,-100.00,North,-999,-999.0,-999.0,65,0.00,,,-99.99,,2013-01-13 03:33:00,
2013-01-12 21:42:00,19.0,9.0,-100.00,North,-999,-999.0,-999.0,65,0.00,,,-99.99,,2013-01-13 03:42:00,
2013-01-12 21:52:00,18.0,8.0,-100.00,North,-999,-999.0,-999.0,63,0.00,,,-99.99,,2013-01-13 03:52:00,
2013-01-12 22:02:00,18.0,8.0,-100.00,North,-999,-999.0,-999.0,63,0.00,,,-99.99,,2013-01-13 04:02:00,
2013-01-12 22:12:00,18.0,6.0,-100.00,North,-999,-999.0,-999.0,61,0.00,,,-99.99,,2013-01-13 04:12:00,
2013-01-12 22:22:00,18.0,7.0,-100.00,North,-999,-999.0,-999.0,62,0.00,,,-99.99,,2013-01-13 04:22:00,
2013-01-12 22:33:00,17.0,7.0,-100.00,North,-999,-999.0,-999.0,62,0.00,,,-99.99,,2013-01-13 04:33:00,
2013-01-12 22:42:00,17.0,7.0,-100.00,North,-999,-999.0,-999.0,62,0.00,,,-99.99,,2013-01-13 04:42:00,
2013-01-12 22:52:00,17.0,7.0,-100.00,North,-999,-999.0,-999.0,62,0.00,,,-99.99,,2013-01-13 04:52:00,
2013-01-12 23:03:00,17.0,7.0,-100.00,North,-999,-999.0,-999.0,62,0.00,,,-99.99,,2013-01-13 05:03:00,
2013-01-12 23:12:00,17.0,7.0,-100.00,North,-999,-999.0,-999.0,64,0.00,,,-99.99,,2013-01-13 05:12:00,
2013-01-12 23:22:00,17.0,7.0,-100.00,North,-999,-999.0,-999.0,64,0.00,,,-99.99,,2013-01-13 05:22:00,
2013-01-12 23:32:00,16.0,7.0,-100.00,North,-999,-999.0,-999.0,66,0.00,,,-99.99,,2013-01-13 05:32:00,
2013-01-12 23:42:00,16.0,7.0,-100.00,North,-999,-999.0,-999.0,66,0.00,,,-99.99,,2013-01-13 05:42:00,
2013-01-12 23:52:00,16.0,8.0,-100.00,North,-999,-999.0,-999.0,70,0.00,,,-99.99,,2013-01-13 05:52:00,